sensor_id;sensor_type;location;lat;lon;timestamp;P1;durP1;ratioP1;P2;durP2;ratioP2
69854;SDS011;57146;48.140;16.304;2022-10-23T00:01:35;1.77;;;0.00;;
69854;SDS011;57146;48.140;16.304;2022-10-23T00:04:14;1.52;;;0.10;;
69854;SDS011;57146;48.140;16.304;2022-10-23T00:06:48;1.90;;;0.03;;
69854;SDS011;57146;48.140;16.304;2022-10-23T00:09:15;1.92;;;0.08;;
69854;SDS011;57146;48.140;16.304;2022-10-23T00:11:45;1.80;;;0.10;;
69854;SDS011;57146;48.140;16.304;2022-10-23T00:14:14;2.03;;;0.10;;
69854;SDS011;57146;48.140;16.304;2022-10-23T00:16:42;1.70;;;0.00;;
69854;SDS011;57146;48.140;16.304;2022-10-23T00:19:09;1.70;;;0.10;;
69854;SDS011;57146;48.140;16.304;2022-10-23T00:21:36;1.92;;;0.10;;
69854;SDS011;57146;48.140;16.304;2022-10-23T00:24:04;1.33;;;0.00;;
69854;SDS011;57146;48.140;16.304;2022-10-23T00:26:31;2.70;;;0.10;;
69854;SDS011;57146;48.140;16.304;2022-10-23T00:28:58;1.73;;;0.10;;
69854;SDS011;57146;48.140;16.304;2022-10-23T00:31:25;2.07;;;0.00;;
69854;SDS011;57146;48.140;16.304;2022-10-23T00:33:52;1.88;;;0.00;;
69854;SDS011;57146;48.140;16.304;2022-10-23T00:36:19;2.05;;;0.05;;
69854;SDS011;57146;48.140;16.304;2022-10-23T00:38:48;1.83;;;0.10;;
69854;SDS011;57146;48.140;16.304;2022-10-23T00:41:20;2.05;;;0.10;;
69854;SDS011;57146;48.140;16.304;2022-10-23T00:44:00;1.83;;;0.10;;
69854;SDS011;57146;48.140;16.304;2022-10-23T00:46:36;2.13;;;0.17;;
69854;SDS011;57146;48.140;16.304;2022-10-23T00:49:05;2.17;;;0.20;;
69854;SDS011;57146;48.140;16.304;2022-10-23T00:51:52;2.22;;;0.10;;
69854;SDS011;57146;48.140;16.304;2022-10-23T00:54:24;2.30;;;0.10;;
69854;SDS011;57146;48.140;16.304;2022-10-23T00:56:53;1.80;;;0.10;;
69854;SDS011;57146;48.140;16.304;2022-10-23T00:59:28;2.10;;;0.13;;
69854;SDS011;57146;48.140;16.304;2022-10-23T01:01:56;2.25;;;0.20;;
69854;SDS011;57146;48.140;16.304;2022-10-23T01:04:25;2.30;;;0.10;;
69854;SDS011;57146;48.140;16.304;2022-10-23T01:09:41;2.80;;;0.10;;
69854;SDS011;57146;48.140;16.304;2022-10-23T01:17:51;2.38;;;0.20;;
69854;SDS011;57146;48.140;16.304;2022-10-23T01:20:42;2.35;;;0.22;;
69854;SDS011;57146;48.140;16.304;2022-10-23T01:28:59;4.25;;;0.45;;
69854;SDS011;57146;48.140;16.304;2022-10-23T01:31:29;3.03;;;0.57;;
69854;SDS011;57146;48.140;16.304;2022-10-23T01:34:07;7.03;;;2.33;;
69854;SDS011;57146;48.140;16.304;2022-10-23T01:36:40;6.00;;;1.57;;
69854;SDS011;57146;48.140;16.304;2022-10-23T01:39:46;4.28;;;1.17;;
69854;SDS011;57146;48.140;16.304;2022-10-23T01:42:11;5.72;;;1.50;;
69854;SDS011;57146;48.140;16.304;2022-10-23T01:45:00;7.15;;;1.83;;
69854;SDS011;57146;48.140;16.304;2022-10-23T01:47:40;6.13;;;1.63;;
69854;SDS011;57146;48.140;16.304;2022-10-23T01:50:12;5.50;;;1.80;;
69854;SDS011;57146;48.140;16.304;2022-10-23T01:52:44;6.30;;;2.00;;
69854;SDS011;57146;48.140;16.304;2022-10-23T01:55:11;6.13;;;1.63;;
69854;SDS011;57146;48.140;16.304;2022-10-23T01:57:40;6.20;;;1.70;;
69854;SDS011;57146;48.140;16.304;2022-10-23T02:00:13;5.45;;;1.20;;
69854;SDS011;57146;48.140;16.304;2022-10-23T02:02:50;7.13;;;1.23;;
69854;SDS011;57146;48.140;16.304;2022-10-23T02:05:24;4.28;;;0.60;;
69854;SDS011;57146;48.140;16.304;2022-10-23T02:07:55;4.35;;;0.95;;
69854;SDS011;57146;48.140;16.304;2022-10-23T02:10:26;4.13;;;0.70;;
69854;SDS011;57146;48.140;16.304;2022-10-23T02:16:38;2.80;;;0.43;;
69854;SDS011;57146;48.140;16.304;2022-10-23T02:19:42;3.10;;;0.35;;
69854;SDS011;57146;48.140;16.304;2022-10-23T02:22:09;3.20;;;0.50;;
69854;SDS011;57146;48.140;16.304;2022-10-23T02:27:25;2.85;;;0.30;;
69854;SDS011;57146;48.140;16.304;2022-10-23T02:30:04;2.73;;;0.30;;
69854;SDS011;57146;48.140;16.304;2022-10-23T02:32:34;3.55;;;0.30;;
69854;SDS011;57146;48.140;16.304;2022-10-23T02:35:05;2.65;;;0.30;;
69854;SDS011;57146;48.140;16.304;2022-10-23T02:37:33;1.85;;;0.10;;
69854;SDS011;57146;48.140;16.304;2022-10-23T02:40:02;2.03;;;0.10;;
69854;SDS011;57146;48.140;16.304;2022-10-23T02:42:41;2.43;;;0.10;;
69854;SDS011;57146;48.140;16.304;2022-10-23T02:45:39;1.67;;;0.00;;
69854;SDS011;57146;48.140;16.304;2022-10-23T02:48:52;2.42;;;0.30;;
69854;SDS011;57146;48.140;16.304;2022-10-23T02:51:34;1.90;;;0.10;;
69854;SDS011;57146;48.140;16.304;2022-10-23T02:57:02;2.53;;;0.10;;
69854;SDS011;57146;48.140;16.304;2022-10-23T03:04:49;2.05;;;0.00;;
69854;SDS011;57146;48.140;16.304;2022-10-23T03:07:19;2.63;;;0.43;;
69854;SDS011;57146;48.140;16.304;2022-10-23T03:09:46;2.93;;;0.53;;
69854;SDS011;57146;48.140;16.304;2022-10-23T03:12:13;4.20;;;0.20;;
69854;SDS011;57146;48.140;16.304;2022-10-23T03:14:39;1.90;;;0.10;;
69854;SDS011;57146;48.140;16.304;2022-10-23T03:17:06;3.15;;;0.20;;
69854;SDS011;57146;48.140;16.304;2022-10-23T03:19:33;4.35;;;0.20;;
69854;SDS011;57146;48.140;16.304;2022-10-23T03:22:02;2.13;;;0.10;;
69854;SDS011;57146;48.140;16.304;2022-10-23T03:24:29;3.75;;;0.20;;
69854;SDS011;57146;48.140;16.304;2022-10-23T03:26:56;2.15;;;0.13;;
69854;SDS011;57146;48.140;16.304;2022-10-23T03:29:29;3.22;;;0.20;;
69854;SDS011;57146;48.140;16.304;2022-10-23T03:31:56;2.95;;;0.10;;
69854;SDS011;57146;48.140;16.304;2022-10-23T03:34:24;2.67;;;0.20;;
69854;SDS011;57146;48.140;16.304;2022-10-23T03:36:52;3.53;;;0.22;;
69854;SDS011;57146;48.140;16.304;2022-10-23T03:39:19;2.05;;;0.10;;
69854;SDS011;57146;48.140;16.304;2022-10-23T03:41:46;2.97;;;0.20;;
69854;SDS011;57146;48.140;16.304;2022-10-23T03:44:15;2.97;;;0.30;;
69854;SDS011;57146;48.140;16.304;2022-10-23T03:46:43;2.43;;;0.20;;
69854;SDS011;57146;48.140;16.304;2022-10-23T03:49:10;2.10;;;0.10;;
69854;SDS011;57146;48.140;16.304;2022-10-23T03:51:41;3.63;;;0.17;;
69854;SDS011;57146;48.140;16.304;2022-10-23T03:54:08;4.75;;;0.20;;
69854;SDS011;57146;48.140;16.304;2022-10-23T03:56:36;2.22;;;0.30;;
69854;SDS011;57146;48.140;16.304;2022-10-23T03:59:06;2.37;;;0.20;;
69854;SDS011;57146;48.140;16.304;2022-10-23T04:01:33;2.30;;;0.25;;
69854;SDS011;57146;48.140;16.304;2022-10-23T04:04:00;1.77;;;0.13;;
69854;SDS011;57146;48.140;16.304;2022-10-23T04:06:28;2.80;;;0.20;;
69854;SDS011;57146;48.140;16.304;2022-10-23T04:08:56;1.80;;;0.20;;
69854;SDS011;57146;48.140;16.304;2022-10-23T04:11:23;2.10;;;0.20;;
69854;SDS011;57146;48.140;16.304;2022-10-23T04:13:50;2.42;;;0.30;;
69854;SDS011;57146;48.140;16.304;2022-10-23T04:16:18;2.58;;;0.28;;
69854;SDS011;57146;48.140;16.304;2022-10-23T04:18:45;2.15;;;0.10;;
69854;SDS011;57146;48.140;16.304;2022-10-23T04:21:12;2.08;;;0.20;;
69854;SDS011;57146;48.140;16.304;2022-10-23T04:23:39;2.10;;;0.30;;
69854;SDS011;57146;48.140;16.304;2022-10-23T04:26:15;1.98;;;0.15;;
69854;SDS011;57146;48.140;16.304;2022-10-23T04:28:42;1.52;;;0.13;;
69854;SDS011;57146;48.140;16.304;2022-10-23T04:31:18;2.75;;;0.10;;
69854;SDS011;57146;48.140;16.304;2022-10-23T04:33:46;2.17;;;0.20;;
69854;SDS011;57146;48.140;16.304;2022-10-23T04:36:26;2.30;;;0.20;;
69854;SDS011;57146;48.140;16.304;2022-10-23T04:38:52;2.55;;;0.20;;
69854;SDS011;57146;48.140;16.304;2022-10-23T04:41:19;2.08;;;0.17;;
69854;SDS011;57146;48.140;16.304;2022-10-23T04:43:46;3.63;;;0.20;;
69854;SDS011;57146;48.140;16.304;2022-10-23T04:46:14;1.98;;;0.20;;
69854;SDS011;57146;48.140;16.304;2022-10-23T04:48:44;1.63;;;0.10;;
69854;SDS011;57146;48.140;16.304;2022-10-23T04:51:20;2.05;;;0.10;;
69854;SDS011;57146;48.140;16.304;2022-10-23T04:53:52;3.60;;;0.00;;
69854;SDS011;57146;48.140;16.304;2022-10-23T04:56:38;2.10;;;0.13;;
69854;SDS011;57146;48.140;16.304;2022-10-23T04:59:08;2.20;;;0.08;;
69854;SDS011;57146;48.140;16.304;2022-10-23T05:01:37;2.40;;;0.20;;
69854;SDS011;57146;48.140;16.304;2022-10-23T05:04:06;2.28;;;0.10;;
69854;SDS011;57146;48.140;16.304;2022-10-23T05:06:43;2.22;;;0.17;;
69854;SDS011;57146;48.140;16.304;2022-10-23T05:09:26;1.67;;;0.10;;
69854;SDS011;57146;48.140;16.304;2022-10-23T05:12:15;1.70;;;0.10;;
69854;SDS011;57146;48.140;16.304;2022-10-23T05:14:42;2.43;;;0.10;;
69854;SDS011;57146;48.140;16.304;2022-10-23T05:17:13;3.22;;;0.10;;
69854;SDS011;57146;48.140;16.304;2022-10-23T05:19:43;2.22;;;0.20;;
69854;SDS011;57146;48.140;16.304;2022-10-23T05:22:17;2.28;;;0.10;;
69854;SDS011;57146;48.140;16.304;2022-10-23T05:24:52;4.57;;;0.15;;
69854;SDS011;57146;48.140;16.304;2022-10-23T05:27:23;2.77;;;0.13;;
69854;SDS011;57146;48.140;16.304;2022-10-23T05:29:52;2.58;;;0.10;;
69854;SDS011;57146;48.140;16.304;2022-10-23T05:32:23;3.85;;;0.20;;
69854;SDS011;57146;48.140;16.304;2022-10-23T05:34:53;1.85;;;0.10;;
69854;SDS011;57146;48.140;16.304;2022-10-23T05:37:24;2.30;;;0.20;;
69854;SDS011;57146;48.140;16.304;2022-10-23T05:40:02;2.97;;;0.20;;
69854;SDS011;57146;48.140;16.304;2022-10-23T05:42:31;2.15;;;0.20;;
69854;SDS011;57146;48.140;16.304;2022-10-23T05:45:03;2.40;;;0.30;;
69854;SDS011;57146;48.140;16.304;2022-10-23T05:47:48;3.13;;;0.43;;
69854;SDS011;57146;48.140;16.304;2022-10-23T05:50:35;3.60;;;0.40;;
69854;SDS011;57146;48.140;16.304;2022-10-23T05:53:25;3.70;;;0.47;;
69854;SDS011;57146;48.140;16.304;2022-10-23T05:56:11;3.63;;;0.57;;
69854;SDS011;57146;48.140;16.304;2022-10-23T05:58:42;3.33;;;0.80;;
69854;SDS011;57146;48.140;16.304;2022-10-23T06:01:30;3.50;;;0.95;;
69854;SDS011;57146;48.140;16.304;2022-10-23T06:04:02;3.97;;;0.90;;
69854;SDS011;57146;48.140;16.304;2022-10-23T06:06:47;4.00;;;0.67;;
69854;SDS011;57146;48.140;16.304;2022-10-23T06:09:15;4.28;;;0.80;;
69854;SDS011;57146;48.140;16.304;2022-10-23T06:11:42;3.80;;;1.20;;
69854;SDS011;57146;48.140;16.304;2022-10-23T06:14:16;4.80;;;1.20;;
69854;SDS011;57146;48.140;16.304;2022-10-23T06:16:43;4.10;;;0.77;;
69854;SDS011;57146;48.140;16.304;2022-10-23T06:19:11;4.80;;;1.03;;
69854;SDS011;57146;48.140;16.304;2022-10-23T06:21:40;3.17;;;0.88;;
69854;SDS011;57146;48.140;16.304;2022-10-23T06:24:10;3.92;;;0.70;;
69854;SDS011;57146;48.140;16.304;2022-10-23T06:27:06;3.97;;;1.05;;
69854;SDS011;57146;48.140;16.304;2022-10-23T06:29:41;4.25;;;1.10;;
69854;SDS011;57146;48.140;16.304;2022-10-23T06:32:07;3.40;;;1.03;;
69854;SDS011;57146;48.140;16.304;2022-10-23T06:34:36;3.65;;;0.90;;
69854;SDS011;57146;48.140;16.304;2022-10-23T06:37:06;4.57;;;1.00;;
69854;SDS011;57146;48.140;16.304;2022-10-23T06:39:44;4.38;;;1.15;;
69854;SDS011;57146;48.140;16.304;2022-10-23T06:42:14;3.92;;;1.00;;
69854;SDS011;57146;48.140;16.304;2022-10-23T06:44:50;5.83;;;1.90;;
69854;SDS011;57146;48.140;16.304;2022-10-23T06:47:35;7.22;;;2.92;;
69854;SDS011;57146;48.140;16.304;2022-10-23T06:50:21;7.53;;;3.00;;
69854;SDS011;57146;48.140;16.304;2022-10-23T06:52:48;7.07;;;2.80;;
69854;SDS011;57146;48.140;16.304;2022-10-23T06:55:16;6.70;;;3.20;;
69854;SDS011;57146;48.140;16.304;2022-10-23T06:57:44;5.97;;;2.83;;
69854;SDS011;57146;48.140;16.304;2022-10-23T07:00:12;6.72;;;2.92;;
69854;SDS011;57146;48.140;16.304;2022-10-23T07:02:49;6.13;;;2.60;;
69854;SDS011;57146;48.140;16.304;2022-10-23T07:05:17;7.65;;;2.80;;
69854;SDS011;57146;48.140;16.304;2022-10-23T07:07:46;5.60;;;2.17;;
69854;SDS011;57146;48.140;16.304;2022-10-23T07:10:18;5.37;;;2.10;;
69854;SDS011;57146;48.140;16.304;2022-10-23T07:12:51;5.63;;;2.00;;
69854;SDS011;57146;48.140;16.304;2022-10-23T07:15:38;4.28;;;1.67;;
69854;SDS011;57146;48.140;16.304;2022-10-23T07:18:10;4.38;;;1.90;;
69854;SDS011;57146;48.140;16.304;2022-10-23T07:20:58;5.65;;;2.13;;
69854;SDS011;57146;48.140;16.304;2022-10-23T07:23:26;5.60;;;2.20;;
69854;SDS011;57146;48.140;16.304;2022-10-23T07:25:54;4.40;;;1.65;;
69854;SDS011;57146;48.140;16.304;2022-10-23T07:28:22;8.13;;;2.15;;
69854;SDS011;57146;48.140;16.304;2022-10-23T07:30:58;6.03;;;2.50;;
69854;SDS011;57146;48.140;16.304;2022-10-23T07:33:46;7.55;;;3.40;;
69854;SDS011;57146;48.140;16.304;2022-10-23T07:36:17;5.20;;;2.10;;
69854;SDS011;57146;48.140;16.304;2022-10-23T07:38:45;4.57;;;1.30;;
69854;SDS011;57146;48.140;16.304;2022-10-23T07:41:12;8.95;;;5.10;;
69854;SDS011;57146;48.140;16.304;2022-10-23T07:43:38;6.57;;;1.90;;
69854;SDS011;57146;48.140;16.304;2022-10-23T07:46:06;4.85;;;1.40;;
69854;SDS011;57146;48.140;16.304;2022-10-23T07:48:37;5.87;;;1.60;;
69854;SDS011;57146;48.140;16.304;2022-10-23T07:51:09;4.45;;;1.27;;
69854;SDS011;57146;48.140;16.304;2022-10-23T07:53:43;5.60;;;1.63;;
69854;SDS011;57146;48.140;16.304;2022-10-23T07:56:48;5.53;;;1.40;;
69854;SDS011;57146;48.140;16.304;2022-10-23T07:59:19;4.07;;;1.45;;
69854;SDS011;57146;48.140;16.304;2022-10-23T08:01:51;3.60;;;1.30;;
69854;SDS011;57146;48.140;16.304;2022-10-23T08:04:26;5.07;;;1.40;;
69854;SDS011;57146;48.140;16.304;2022-10-23T08:06:58;4.38;;;1.20;;
69854;SDS011;57146;48.140;16.304;2022-10-23T08:09:28;5.40;;;1.40;;
69854;SDS011;57146;48.140;16.304;2022-10-23T08:11:56;5.55;;;1.60;;
69854;SDS011;57146;48.140;16.304;2022-10-23T08:14:25;4.33;;;1.30;;
69854;SDS011;57146;48.140;16.304;2022-10-23T08:16:53;4.50;;;0.82;;
69854;SDS011;57146;48.140;16.304;2022-10-23T08:19:47;3.80;;;1.20;;
69854;SDS011;57146;48.140;16.304;2022-10-23T08:22:15;4.72;;;0.77;;
69854;SDS011;57146;48.140;16.304;2022-10-23T08:24:42;4.70;;;1.30;;
69854;SDS011;57146;48.140;16.304;2022-10-23T08:27:09;5.70;;;1.60;;
69854;SDS011;57146;48.140;16.304;2022-10-23T08:29:41;4.60;;;1.60;;
69854;SDS011;57146;48.140;16.304;2022-10-23T08:32:08;5.68;;;1.55;;
69854;SDS011;57146;48.140;16.304;2022-10-23T08:34:56;4.85;;;1.48;;
69854;SDS011;57146;48.140;16.304;2022-10-23T08:37:25;4.70;;;1.50;;
69854;SDS011;57146;48.140;16.304;2022-10-23T08:39:52;5.50;;;1.40;;
69854;SDS011;57146;48.140;16.304;2022-10-23T08:42:37;6.75;;;1.80;;
69854;SDS011;57146;48.140;16.304;2022-10-23T08:45:09;5.30;;;1.70;;
69854;SDS011;57146;48.140;16.304;2022-10-23T08:48:17;4.75;;;1.73;;
69854;SDS011;57146;48.140;16.304;2022-10-23T08:53:56;4.53;;;1.30;;
69854;SDS011;57146;48.140;16.304;2022-10-23T08:56:36;5.25;;;1.58;;
69854;SDS011;57146;48.140;16.304;2022-10-23T09:01:48;5.22;;;1.42;;
69854;SDS011;57146;48.140;16.304;2022-10-23T09:04:21;4.45;;;1.80;;
69854;SDS011;57146;48.140;16.304;2022-10-23T09:07:09;4.80;;;1.73;;
69854;SDS011;57146;48.140;16.304;2022-10-23T09:09:47;4.57;;;1.60;;
69854;SDS011;57146;48.140;16.304;2022-10-23T09:12:28;5.07;;;2.28;;
69854;SDS011;57146;48.140;16.304;2022-10-23T09:17:58;4.53;;;1.90;;
69854;SDS011;57146;48.140;16.304;2022-10-23T09:20:33;4.50;;;1.97;;
69854;SDS011;57146;48.140;16.304;2022-10-23T09:25:45;4.15;;;1.70;;
69854;SDS011;57146;48.140;16.304;2022-10-23T09:28:24;4.55;;;1.92;;
69854;SDS011;57146;48.140;16.304;2022-10-23T09:30:53;4.68;;;1.80;;
69854;SDS011;57146;48.140;16.304;2022-10-23T09:33:32;4.77;;;2.00;;
69854;SDS011;57146;48.140;16.304;2022-10-23T09:36:00;4.30;;;2.20;;
69854;SDS011;57146;48.140;16.304;2022-10-23T09:38:36;5.80;;;2.50;;
69854;SDS011;57146;48.140;16.304;2022-10-23T09:41:34;5.82;;;2.83;;
69854;SDS011;57146;48.140;16.304;2022-10-23T09:46:39;6.20;;;2.67;;
69854;SDS011;57146;48.140;16.304;2022-10-23T09:49:19;7.07;;;3.35;;
69854;SDS011;57146;48.140;16.304;2022-10-23T09:55:01;4.72;;;2.22;;
69854;SDS011;57146;48.140;16.304;2022-10-23T09:57:41;4.65;;;2.03;;
69854;SDS011;57146;48.140;16.304;2022-10-23T10:02:41;4.45;;;1.98;;
69854;SDS011;57146;48.140;16.304;2022-10-23T10:05:26;5.38;;;2.40;;
69854;SDS011;57146;48.140;16.304;2022-10-23T10:11:09;5.43;;;2.30;;
69854;SDS011;57146;48.140;16.304;2022-10-23T10:14:02;5.10;;;2.73;;
69854;SDS011;57146;48.140;16.304;2022-10-23T10:23:11;4.50;;;2.30;;
69854;SDS011;57146;48.140;16.304;2022-10-23T10:26:00;4.95;;;2.55;;
69854;SDS011;57146;48.140;16.304;2022-10-23T10:45:32;3.70;;;2.03;;
69854;SDS011;57146;48.140;16.304;2022-10-23T10:51:06;4.18;;;2.22;;
69854;SDS011;57146;48.140;16.304;2022-10-23T10:56:30;4.50;;;1.97;;
69854;SDS011;57146;48.140;16.304;2022-10-23T10:59:01;3.83;;;1.67;;
69854;SDS011;57146;48.140;16.304;2022-10-23T11:01:38;3.88;;;1.38;;
69854;SDS011;57146;48.140;16.304;2022-10-23T11:04:21;4.65;;;2.00;;
69854;SDS011;57146;48.140;16.304;2022-10-23T11:06:53;4.00;;;1.80;;
69854;SDS011;57146;48.140;16.304;2022-10-23T11:09:24;4.73;;;2.30;;
69854;SDS011;57146;48.140;16.304;2022-10-23T11:11:56;4.53;;;2.15;;
69854;SDS011;57146;48.140;16.304;2022-10-23T11:14:24;5.45;;;1.98;;
69854;SDS011;57146;48.140;16.304;2022-10-23T11:19:29;4.97;;;1.80;;
69854;SDS011;57146;48.140;16.304;2022-10-23T11:28:22;4.32;;;1.60;;
69854;SDS011;57146;48.140;16.304;2022-10-23T11:31:04;3.95;;;1.77;;
69854;SDS011;57146;48.140;16.304;2022-10-23T11:39:24;4.15;;;1.88;;
69854;SDS011;57146;48.140;16.304;2022-10-23T11:41:57;4.63;;;2.10;;
69854;SDS011;57146;48.140;16.304;2022-10-23T11:44:38;4.78;;;2.13;;
69854;SDS011;57146;48.140;16.304;2022-10-23T11:47:27;4.22;;;2.13;;
69854;SDS011;57146;48.140;16.304;2022-10-23T11:52:37;5.00;;;2.22;;
69854;SDS011;57146;48.140;16.304;2022-10-23T11:57:58;3.88;;;1.73;;
69854;SDS011;57146;48.140;16.304;2022-10-23T12:00:48;4.10;;;1.70;;
69854;SDS011;57146;48.140;16.304;2022-10-23T12:03:49;4.77;;;1.90;;
69854;SDS011;57146;48.140;16.304;2022-10-23T12:06:25;4.07;;;1.98;;
69854;SDS011;57146;48.140;16.304;2022-10-23T12:08:57;4.60;;;1.70;;
69854;SDS011;57146;48.140;16.304;2022-10-23T12:11:45;4.63;;;2.10;;
69854;SDS011;57146;48.140;16.304;2022-10-23T12:14:29;4.18;;;1.83;;
69854;SDS011;57146;48.140;16.304;2022-10-23T12:16:58;5.03;;;1.93;;
69854;SDS011;57146;48.140;16.304;2022-10-23T12:19:28;5.55;;;2.30;;
69854;SDS011;57146;48.140;16.304;2022-10-23T12:21:57;4.88;;;2.22;;
69854;SDS011;57146;48.140;16.304;2022-10-23T12:32:32;4.40;;;1.63;;
69854;SDS011;57146;48.140;16.304;2022-10-23T12:38:25;4.13;;;1.65;;
69854;SDS011;57146;48.140;16.304;2022-10-23T12:41:12;4.50;;;1.60;;
69854;SDS011;57146;48.140;16.304;2022-10-23T12:43:52;4.10;;;1.95;;
69854;SDS011;57146;48.140;16.304;2022-10-23T12:49:02;4.80;;;2.08;;
69854;SDS011;57146;48.140;16.304;2022-10-23T12:51:38;4.40;;;1.65;;
69854;SDS011;57146;48.140;16.304;2022-10-23T12:54:17;4.45;;;2.20;;
69854;SDS011;57146;48.140;16.304;2022-10-23T12:56:47;5.03;;;2.40;;
69854;SDS011;57146;48.140;16.304;2022-10-23T12:59:19;4.45;;;2.13;;
69854;SDS011;57146;48.140;16.304;2022-10-23T13:01:52;3.90;;;1.85;;
69854;SDS011;57146;48.140;16.304;2022-10-23T13:04:30;5.78;;;2.33;;
69854;SDS011;57146;48.140;16.304;2022-10-23T13:07:00;4.43;;;1.92;;
69854;SDS011;57146;48.140;16.304;2022-10-23T13:09:32;5.50;;;2.00;;
69854;SDS011;57146;48.140;16.304;2022-10-23T13:12:55;4.78;;;2.17;;
69854;SDS011;57146;48.140;16.304;2022-10-23T13:17:41;4.53;;;2.03;;
69854;SDS011;57146;48.140;16.304;2022-10-23T13:22:50;4.30;;;1.80;;
69854;SDS011;57146;48.140;16.304;2022-10-23T13:25:39;4.10;;;1.95;;
69854;SDS011;57146;48.140;16.304;2022-10-23T13:30:34;5.40;;;2.55;;
69854;SDS011;57146;48.140;16.304;2022-10-23T13:33:12;6.75;;;3.28;;
69854;SDS011;57146;48.140;16.304;2022-10-23T13:35:58;6.60;;;3.50;;
69854;SDS011;57146;48.140;16.304;2022-10-23T13:38:34;6.07;;;3.20;;
69854;SDS011;57146;48.140;16.304;2022-10-23T13:41:05;6.70;;;3.33;;
69854;SDS011;57146;48.140;16.304;2022-10-23T13:43:43;5.97;;;3.10;;
69854;SDS011;57146;48.140;16.304;2022-10-23T13:46:13;6.15;;;3.15;;
69854;SDS011;57146;48.140;16.304;2022-10-23T13:48:40;8.43;;;3.75;;
69854;SDS011;57146;48.140;16.304;2022-10-23T13:51:14;6.10;;;3.33;;
69854;SDS011;57146;48.140;16.304;2022-10-23T13:53:51;6.95;;;3.67;;
69854;SDS011;57146;48.140;16.304;2022-10-23T13:56:20;7.55;;;3.95;;
69854;SDS011;57146;48.140;16.304;2022-10-23T13:58:49;7.22;;;3.67;;
69854;SDS011;57146;48.140;16.304;2022-10-23T14:01:28;7.53;;;4.07;;
69854;SDS011;57146;48.140;16.304;2022-10-23T14:03:58;6.45;;;3.13;;
69854;SDS011;57146;48.140;16.304;2022-10-23T14:06:26;6.47;;;3.55;;
69854;SDS011;57146;48.140;16.304;2022-10-23T14:08:53;7.22;;;4.10;;
69854;SDS011;57146;48.140;16.304;2022-10-23T14:11:20;7.20;;;3.70;;
69854;SDS011;57146;48.140;16.304;2022-10-23T14:13:47;7.50;;;4.40;;
69854;SDS011;57146;48.140;16.304;2022-10-23T14:16:16;7.68;;;4.28;;
69854;SDS011;57146;48.140;16.304;2022-10-23T14:18:44;11.27;;;3.90;;
69854;SDS011;57146;48.140;16.304;2022-10-23T14:21:14;8.45;;;4.63;;
69854;SDS011;57146;48.140;16.304;2022-10-23T14:23:42;7.88;;;4.60;;
69854;SDS011;57146;48.140;16.304;2022-10-23T14:26:10;8.53;;;4.73;;
69854;SDS011;57146;48.140;16.304;2022-10-23T14:28:39;8.82;;;4.88;;
69854;SDS011;57146;48.140;16.304;2022-10-23T14:31:08;9.70;;;4.60;;
69854;SDS011;57146;48.140;16.304;2022-10-23T14:33:37;9.32;;;4.88;;
69854;SDS011;57146;48.140;16.304;2022-10-23T14:36:05;8.20;;;4.68;;
69854;SDS011;57146;48.140;16.304;2022-10-23T14:38:34;7.90;;;4.20;;
69854;SDS011;57146;48.140;16.304;2022-10-23T14:41:03;8.95;;;4.70;;
69854;SDS011;57146;48.140;16.304;2022-10-23T14:43:36;9.52;;;4.93;;
69854;SDS011;57146;48.140;16.304;2022-10-23T14:46:07;9.63;;;5.18;;
69854;SDS011;57146;48.140;16.304;2022-10-23T14:48:35;9.07;;;5.00;;
69854;SDS011;57146;48.140;16.304;2022-10-23T14:51:04;9.50;;;5.63;;
69854;SDS011;57146;48.140;16.304;2022-10-23T14:53:33;9.60;;;5.53;;
69854;SDS011;57146;48.140;16.304;2022-10-23T14:56:00;12.45;;;6.93;;
69854;SDS011;57146;48.140;16.304;2022-10-23T14:58:29;11.02;;;6.10;;
69854;SDS011;57146;48.140;16.304;2022-10-23T15:00:57;12.43;;;6.65;;
69854;SDS011;57146;48.140;16.304;2022-10-23T15:03:26;12.20;;;7.00;;
69854;SDS011;57146;48.140;16.304;2022-10-23T15:05:54;11.13;;;6.38;;
69854;SDS011;57146;48.140;16.304;2022-10-23T15:08:22;13.65;;;7.05;;
69854;SDS011;57146;48.140;16.304;2022-10-23T15:10:49;12.77;;;7.00;;
69854;SDS011;57146;48.140;16.304;2022-10-23T15:13:16;13.32;;;6.65;;
69854;SDS011;57146;48.140;16.304;2022-10-23T15:15:43;11.37;;;6.53;;
69854;SDS011;57146;48.140;16.304;2022-10-23T15:18:10;13.50;;;7.60;;
69854;SDS011;57146;48.140;16.304;2022-10-23T15:20:37;14.93;;;8.48;;
69854;SDS011;57146;48.140;16.304;2022-10-23T15:23:05;13.25;;;7.60;;
69854;SDS011;57146;48.140;16.304;2022-10-23T15:25:33;13.55;;;8.00;;
69854;SDS011;57146;48.140;16.304;2022-10-23T15:28:00;15.53;;;8.00;;
69854;SDS011;57146;48.140;16.304;2022-10-23T15:30:26;16.23;;;9.13;;
69854;SDS011;57146;48.140;16.304;2022-10-23T15:32:53;17.20;;;9.45;;
69854;SDS011;57146;48.140;16.304;2022-10-23T15:35:21;16.38;;;9.02;;
69854;SDS011;57146;48.140;16.304;2022-10-23T15:37:48;13.60;;;7.47;;
69854;SDS011;57146;48.140;16.304;2022-10-23T15:40:16;14.53;;;8.33;;
69854;SDS011;57146;48.140;16.304;2022-10-23T15:42:43;14.80;;;8.70;;
69854;SDS011;57146;48.140;16.304;2022-10-23T15:45:11;15.63;;;8.60;;
69854;SDS011;57146;48.140;16.304;2022-10-23T15:47:42;21.55;;;11.02;;
69854;SDS011;57146;48.140;16.304;2022-10-23T15:50:09;19.55;;;10.25;;
69854;SDS011;57146;48.140;16.304;2022-10-23T15:52:36;18.03;;;9.83;;
69854;SDS011;57146;48.140;16.304;2022-10-23T15:55:03;19.60;;;10.90;;
69854;SDS011;57146;48.140;16.304;2022-10-23T15:57:30;19.55;;;11.02;;
69854;SDS011;57146;48.140;16.304;2022-10-23T15:59:58;20.02;;;10.98;;
69854;SDS011;57146;48.140;16.304;2022-10-23T16:02:25;21.83;;;12.02;;
69854;SDS011;57146;48.140;16.304;2022-10-23T16:04:53;18.83;;;11.07;;
69854;SDS011;57146;48.140;16.304;2022-10-23T16:07:20;19.98;;;11.70;;
69854;SDS011;57146;48.140;16.304;2022-10-23T16:09:47;19.80;;;11.65;;
69854;SDS011;57146;48.140;16.304;2022-10-23T16:12:14;18.65;;;10.63;;
69854;SDS011;57146;48.140;16.304;2022-10-23T16:14:41;17.20;;;10.02;;
69854;SDS011;57146;48.140;16.304;2022-10-23T16:17:08;19.10;;;11.20;;
69854;SDS011;57146;48.140;16.304;2022-10-23T16:19:37;16.83;;;9.50;;
69854;SDS011;57146;48.140;16.304;2022-10-23T16:22:06;17.10;;;9.77;;
69854;SDS011;57146;48.140;16.304;2022-10-23T16:24:33;16.65;;;9.00;;
69854;SDS011;57146;48.140;16.304;2022-10-23T16:27:00;16.73;;;10.05;;
69854;SDS011;57146;48.140;16.304;2022-10-23T16:29:28;20.73;;;11.77;;
69854;SDS011;57146;48.140;16.304;2022-10-23T16:31:55;19.30;;;11.07;;
69854;SDS011;57146;48.140;16.304;2022-10-23T16:34:23;17.38;;;10.13;;
69854;SDS011;57146;48.140;16.304;2022-10-23T16:36:50;19.48;;;10.50;;
69854;SDS011;57146;48.140;16.304;2022-10-23T16:39:27;19.50;;;10.80;;
69854;SDS011;57146;48.140;16.304;2022-10-23T16:42:32;20.63;;;11.03;;
69854;SDS011;57146;48.140;16.304;2022-10-23T16:45:10;18.60;;;10.20;;
69854;SDS011;57146;48.140;16.304;2022-10-23T16:47:38;17.77;;;10.00;;
69854;SDS011;57146;48.140;16.304;2022-10-23T16:50:07;21.20;;;12.18;;
69854;SDS011;57146;48.140;16.304;2022-10-23T16:52:34;25.63;;;15.98;;
69854;SDS011;57146;48.140;16.304;2022-10-23T16:55:01;25.50;;;15.53;;
69854;SDS011;57146;48.140;16.304;2022-10-23T16:57:33;22.73;;;13.38;;
69854;SDS011;57146;48.140;16.304;2022-10-23T17:00:01;22.58;;;13.00;;
69854;SDS011;57146;48.140;16.304;2022-10-23T17:02:30;21.15;;;12.02;;
69854;SDS011;57146;48.140;16.304;2022-10-23T17:04:59;19.77;;;11.27;;
69854;SDS011;57146;48.140;16.304;2022-10-23T17:07:27;19.30;;;11.07;;